createdAt,value
2022-11-17T00:00:04.470Z,7.85
2022-11-17T00:02:07.816Z,7.81
2022-11-17T00:04:06.256Z,7.86
2022-11-17T00:06:05.217Z,7.94
2022-11-17T00:08:03.442Z,7.92
2022-11-17T00:10:01.667Z,7.87
2022-11-17T00:12:22.505Z,7.80
2022-11-17T00:14:41.085Z,7.84
2022-11-17T00:16:39.426Z,7.82
2022-11-17T00:18:55.267Z,7.82
2022-11-17T00:21:11.722Z,7.84
2022-11-17T00:23:09.809Z,7.80
2022-11-17T00:25:08.938Z,7.89
2022-11-17T00:27:09.068Z,8.00
2022-11-17T00:29:07.422Z,7.89
2022-11-17T00:31:23.973Z,7.87
2022-11-17T00:33:39.509Z,7.83
2022-11-17T00:35:37.835Z,7.79
2022-11-17T00:37:38.879Z,7.78
2022-11-17T00:39:37.238Z,7.77
2022-11-17T00:41:35.990Z,7.79
2022-11-17T00:43:35.820Z,7.79
2022-11-17T00:45:34.265Z,7.80
2022-11-17T00:47:37.501Z,7.79
2022-11-17T00:49:36.908Z,7.81
2022-11-17T00:51:35.709Z,7.81
2022-11-17T00:53:34.389Z,7.85
2022-11-17T00:55:32.949Z,7.83
2022-11-17T00:57:31.299Z,7.82
2022-11-17T00:59:30.971Z,7.81
2022-11-17T01:01:30.249Z,7.80
2022-11-17T01:03:28.698Z,7.83
2022-11-17T01:05:32.696Z,7.84
2022-11-17T01:07:31.281Z,7.82
2022-11-17T01:09:29.818Z,7.84
2022-11-17T01:11:28.872Z,7.82
2022-11-17T01:13:27.311Z,7.93
2022-11-17T01:15:27.852Z,7.91
2022-11-17T01:17:26.576Z,7.84
2022-11-17T01:19:25.700Z,7.77
2022-11-17T01:21:26.633Z,7.78
2022-11-17T01:23:27.836Z,7.77
2022-11-17T01:25:26.046Z,7.74
2022-11-17T01:27:24.424Z,7.72
2022-11-17T01:29:22.701Z,7.71
2022-11-17T01:31:24.637Z,7.81
2022-11-17T01:33:22.910Z,7.79
2022-11-17T01:35:21.068Z,7.77
2022-11-17T01:37:21.455Z,7.79
2022-11-17T01:39:19.871Z,7.80
2022-11-17T01:41:20.053Z,7.87
2022-11-17T01:43:18.424Z,7.83
2022-11-17T01:45:20.713Z,7.80
2022-11-17T01:47:24.197Z,7.82
2022-11-17T01:49:26.558Z,7.82
2022-11-17T01:51:25.162Z,7.84
2022-11-17T01:53:26.354Z,7.90
2022-11-17T01:55:27.032Z,7.96
2022-11-17T01:57:28.939Z,8.06
2022-11-17T01:59:31.237Z,8.10
2022-11-17T02:01:29.619Z,7.99
2022-11-17T02:03:29.949Z,7.91
2022-11-17T02:05:40.614Z,7.90
2022-11-17T02:07:40.766Z,7.92
2022-11-17T02:09:40.834Z,7.88
2022-11-17T02:11:39.089Z,7.83
2022-11-17T02:13:38.557Z,7.86
2022-11-17T02:15:37.047Z,7.88
2022-11-17T02:17:38.021Z,7.86
2022-11-17T02:19:41.362Z,7.88
2022-11-17T02:22:10.697Z,7.83
2022-11-17T02:24:37.880Z,7.86
2022-11-17T02:27:02.068Z,7.82
2022-11-17T02:29:10.841Z,7.81
2022-11-17T02:31:19.302Z,7.78
2022-11-17T02:33:28.817Z,7.82
2022-11-17T02:35:31.795Z,7.85
2022-11-17T02:37:38.565Z,7.89
2022-11-17T02:39:43.006Z,7.91
2022-11-17T02:41:51.355Z,7.87
2022-11-17T02:44:04.207Z,7.95
2022-11-17T02:46:08.728Z,8.07
2022-11-17T02:48:12.415Z,8.11
2022-11-17T02:50:12.635Z,8.01
2022-11-17T02:52:11.621Z,7.92
2022-11-17T02:54:10.573Z,7.89
2022-11-17T02:56:09.026Z,7.91
2022-11-17T02:58:12.232Z,7.93
2022-11-17T03:00:13.421Z,7.97
2022-11-17T03:02:51.123Z,7.96
2022-11-17T03:05:05.082Z,7.96
2022-11-17T03:07:15.566Z,8.07
2022-11-17T03:09:20.409Z,8.02
2022-11-17T03:11:29.541Z,7.95
2022-11-17T03:13:39.515Z,7.92
2022-11-17T03:15:48.470Z,7.93
2022-11-17T03:17:55.021Z,7.97
2022-11-17T03:19:59.134Z,7.97
2022-11-17T03:22:05.447Z,7.98
2022-11-17T03:24:09.024Z,8.04
2022-11-17T03:26:10.619Z,8.08
2022-11-17T03:28:12.677Z,8.15
2022-11-17T03:30:13.563Z,8.08
2022-11-17T03:32:13.223Z,8.10
2022-11-17T03:34:16.635Z,8.09
2022-11-17T03:36:17.443Z,8.06
2022-11-17T03:38:18.179Z,8.05
2022-11-17T03:40:21.017Z,8.07
2022-11-17T03:42:24.863Z,8.08
2022-11-17T03:44:25.988Z,8.13
2022-11-17T03:46:26.490Z,8.17
2022-11-17T03:48:30.095Z,8.10
2022-11-17T03:50:35.023Z,8.06
2022-11-17T03:52:35.022Z,8.00
2022-11-17T03:54:34.172Z,8.01
2022-11-17T03:56:39.466Z,7.99
2022-11-17T03:58:51.313Z,7.97
2022-11-17T04:00:53.942Z,8.02
2022-11-17T04:02:58.663Z,8.06
2022-11-17T04:05:09.418Z,8.07
2022-11-17T04:07:09.000Z,8.02
2022-11-17T04:09:07.295Z,8.02
2022-11-17T04:11:22.907Z,8.02
2022-11-17T04:13:38.556Z,8.01
2022-11-17T04:16:02.928Z,8.01
2022-11-17T04:18:01.198Z,8.01
2022-11-17T04:19:59.441Z,8.02
2022-11-17T04:21:57.587Z,8.01
2022-11-17T04:24:00.267Z,8.02
2022-11-17T04:26:16.698Z,8.12
2022-11-17T04:28:37.354Z,8.14
2022-11-17T04:30:35.600Z,8.12
2022-11-17T04:32:33.791Z,8.04
2022-11-17T04:34:32.071Z,8.05
2022-11-17T04:36:32.107Z,8.03
2022-11-17T04:38:30.703Z,8.03
2022-11-17T04:40:30.366Z,8.02
2022-11-17T04:42:28.831Z,8.03
2022-11-17T04:44:29.082Z,8.01
2022-11-17T04:46:28.437Z,8.02
2022-11-17T04:48:26.827Z,8.04
2022-11-17T04:50:25.087Z,8.09
2022-11-17T04:52:28.457Z,8.18
2022-11-17T04:54:28.118Z,8.17
2022-11-17T04:56:28.927Z,8.10
2022-11-17T04:58:27.376Z,8.08
2022-11-17T05:00:25.755Z,8.06
2022-11-17T05:02:24.211Z,8.02
2022-11-17T05:04:36.680Z,7.97
2022-11-17T05:06:36.792Z,7.94
2022-11-17T05:08:37.028Z,8.03
2022-11-17T05:10:52.913Z,8.07
2022-11-17T05:13:10.221Z,8.16
2022-11-17T05:15:09.540Z,8.17
2022-11-17T05:17:10.073Z,8.07
2022-11-17T05:19:10.937Z,8.02
2022-11-17T05:21:11.077Z,7.99
2022-11-17T05:23:26.995Z,7.98
2022-11-17T05:25:25.210Z,8.02
2022-11-17T05:27:24.445Z,8.04
2022-11-17T05:29:24.957Z,8.10
2022-11-17T05:31:23.450Z,8.15
2022-11-17T05:33:21.839Z,8.14
2022-11-17T05:35:20.047Z,8.15
2022-11-17T05:37:18.443Z,8.09
2022-11-17T05:39:16.694Z,8.07
2022-11-17T05:41:14.948Z,8.05
2022-11-17T05:43:13.221Z,8.00
2022-11-17T05:45:12.865Z,7.99
2022-11-17T05:47:11.072Z,8.02
2022-11-17T05:49:09.331Z,8.01
2022-11-17T05:51:07.860Z,8.11
2022-11-17T05:53:06.209Z,8.17
2022-11-17T05:55:07.604Z,8.16
2022-11-17T05:57:09.809Z,8.15
2022-11-17T05:59:16.563Z,8.16
2022-11-17T06:01:18.652Z,8.21
2022-11-17T06:03:22.164Z,8.16
2022-11-17T06:05:21.664Z,8.14
2022-11-17T06:07:20.745Z,8.17
2022-11-17T06:09:50.105Z,8.27
2022-11-17T06:11:48.351Z,8.30
2022-11-17T06:13:46.699Z,8.38
2022-11-17T06:15:45.004Z,8.32
2022-11-17T06:17:52.222Z,8.35
2022-11-17T06:19:55.332Z,8.37
2022-11-17T06:22:14.133Z,8.40
2022-11-17T06:24:12.387Z,8.42
2022-11-17T06:26:18.149Z,8.45
2022-11-17T06:28:20.430Z,8.40
2022-11-17T06:30:19.549Z,8.43
2022-11-17T06:32:20.981Z,8.50
2022-11-17T06:34:20.845Z,8.51
2022-11-17T06:36:19.314Z,8.47
2022-11-17T06:38:18.401Z,8.45
2022-11-17T06:40:17.388Z,8.42
2022-11-17T06:42:15.771Z,8.46
2022-11-17T06:44:13.989Z,8.54
2022-11-17T06:46:12.153Z,8.61
2022-11-17T06:48:12.584Z,8.56
2022-11-17T06:50:12.679Z,8.51
2022-11-17T06:52:11.719Z,8.48
2022-11-17T06:54:10.645Z,8.52
2022-11-17T06:56:09.735Z,8.57
2022-11-17T06:58:11.697Z,8.63
2022-11-17T07:00:11.450Z,8.87
2022-11-17T07:02:09.597Z,8.96
2022-11-17T07:04:08.970Z,8.69
2022-11-17T07:06:10.899Z,8.55
2022-11-17T07:08:09.973Z,8.69
2022-11-17T07:10:09.782Z,8.76
2022-11-17T07:12:08.228Z,8.87
2022-11-17T07:14:11.931Z,9.02
2022-11-17T07:16:12.730Z,9.12
2022-11-17T07:18:11.105Z,9.15
2022-11-17T07:20:10.732Z,9.23
2022-11-17T07:22:10.477Z,9.26
2022-11-17T07:24:09.158Z,9.28
2022-11-17T07:26:08.344Z,9.30
2022-11-17T07:28:07.028Z,9.26
2022-11-17T07:30:06.967Z,9.26
2022-11-17T07:32:05.367Z,9.28
2022-11-17T07:34:03.861Z,9.38
2022-11-17T07:36:06.519Z,9.39
2022-11-17T07:38:06.407Z,9.46
2022-11-17T07:40:04.866Z,9.47
2022-11-17T07:42:03.057Z,9.54
2022-11-17T07:44:01.315Z,9.57
2022-11-17T07:45:59.581Z,9.69
2022-11-17T07:47:59.407Z,9.73
2022-11-17T07:50:00.688Z,9.79
2022-11-17T07:51:59.096Z,9.81
2022-11-17T07:53:58.671Z,9.87
2022-11-17T07:55:57.304Z,10.16
2022-11-17T07:57:56.462Z,10.42
2022-11-17T07:59:54.787Z,10.66
2022-11-17T08:01:53.037Z,10.83
2022-11-17T08:03:51.306Z,11.07
2022-11-17T08:05:49.712Z,11.28
2022-11-17T08:07:57.657Z,11.40
2022-11-17T08:09:57.654Z,11.83
2022-11-17T08:11:57.749Z,12.07
2022-11-17T08:13:57.086Z,11.86
2022-11-17T08:15:57.337Z,11.68
2022-11-17T08:17:56.272Z,11.59
2022-11-17T08:19:54.650Z,11.48
2022-11-17T08:21:52.794Z,11.36
2022-11-17T08:23:52.000Z,11.23
2022-11-17T08:25:54.827Z,11.31
2022-11-17T08:27:56.252Z,11.40
2022-11-17T08:29:54.556Z,11.39
2022-11-17T08:31:52.966Z,11.39
2022-11-17T08:33:51.195Z,11.30
2022-11-17T08:35:49.692Z,11.73
2022-11-17T08:37:48.122Z,13.11
2022-11-17T08:39:46.448Z,14.60
2022-11-17T08:41:54.901Z,15.68
2022-11-17T08:43:53.177Z,17.74
2022-11-17T08:45:51.777Z,18.02
2022-11-17T08:47:50.176Z,19.30
2022-11-17T08:49:48.488Z,19.30
2022-11-17T08:51:46.929Z,21.14
2022-11-17T08:53:45.544Z,20.40
2022-11-17T08:55:44.068Z,19.05
2022-11-17T08:57:44.044Z,17.80
2022-11-17T08:59:42.434Z,16.54
2022-11-17T09:01:41.397Z,15.58
2022-11-17T09:03:40.099Z,15.10
2022-11-17T09:05:40.198Z,14.80
2022-11-17T09:07:38.898Z,14.70
2022-11-17T09:09:37.835Z,14.59
2022-11-17T09:11:45.560Z,14.94
2022-11-17T09:13:47.205Z,15.19
2022-11-17T09:15:45.732Z,15.01
2022-11-17T09:17:47.881Z,14.86
2022-11-17T09:19:46.214Z,14.52
2022-11-17T09:21:44.930Z,14.36
2022-11-17T09:23:44.627Z,14.16
2022-11-17T09:25:43.728Z,13.89
2022-11-17T09:27:42.194Z,13.79
2022-11-17T09:29:41.943Z,13.74
2022-11-17T09:31:40.332Z,13.90
2022-11-17T09:33:38.841Z,13.85
2022-11-17T09:35:37.082Z,14.05
2022-11-17T09:37:35.369Z,14.05
2022-11-17T09:39:33.504Z,13.91
2022-11-17T09:41:36.964Z,13.66
2022-11-17T09:43:39.676Z,13.48
2022-11-17T09:45:41.037Z,13.33
2022-11-17T09:47:45.088Z,13.27
2022-11-17T09:49:55.237Z,13.25
2022-11-17T09:52:01.877Z,13.40
2022-11-17T09:54:05.613Z,13.61
2022-11-17T09:56:08.549Z,13.86
2022-11-17T09:58:16.091Z,14.04
2022-11-17T10:00:16.778Z,14.00
2022-11-17T10:02:16.781Z,13.83
2022-11-17T10:04:18.738Z,13.74
2022-11-17T10:06:20.824Z,13.66
2022-11-17T10:08:21.803Z,13.64
2022-11-17T10:10:23.793Z,13.67
2022-11-17T10:12:23.886Z,13.74
2022-11-17T10:14:24.878Z,13.90
2022-11-17T10:16:23.503Z,14.05
2022-11-17T10:18:23.290Z,14.19
2022-11-17T10:20:22.087Z,14.24
2022-11-17T10:22:35.859Z,14.09
2022-11-17T10:24:35.686Z,13.98
2022-11-17T10:26:45.720Z,13.95
2022-11-17T10:28:44.393Z,13.96
2022-11-17T10:30:54.536Z,13.82
2022-11-17T10:32:54.222Z,13.78
2022-11-17T10:34:54.368Z,13.78
2022-11-17T10:36:52.490Z,13.97
2022-11-17T10:38:52.946Z,13.97
2022-11-17T10:40:53.346Z,14.15
2022-11-17T10:43:02.061Z,14.25
2022-11-17T10:45:02.586Z,14.30
2022-11-17T10:47:04.160Z,14.35
2022-11-17T10:49:05.222Z,14.33
2022-11-17T10:51:09.383Z,14.43
2022-11-17T10:53:22.216Z,14.29
2022-11-17T10:55:25.370Z,14.18
2022-11-17T10:57:27.762Z,14.13
2022-11-17T10:59:30.919Z,14.06
2022-11-17T11:01:33.986Z,14.16
2022-11-17T11:03:34.489Z,14.23
2022-11-17T11:05:33.013Z,14.26
2022-11-17T11:07:32.791Z,14.35
2022-11-17T11:09:31.921Z,14.12
2022-11-17T11:11:44.126Z,14.15
2022-11-17T11:13:49.681Z,14.42
2022-11-17T11:15:48.260Z,14.76
2022-11-17T11:17:46.399Z,14.81
2022-11-17T11:19:50.800Z,14.88
2022-11-17T11:22:14.657Z,15.27
2022-11-17T11:24:24.855Z,15.29
2022-11-17T11:26:43.691Z,15.17
2022-11-17T11:28:54.983Z,14.80
2022-11-17T11:31:02.781Z,14.58
2022-11-17T11:33:16.107Z,14.65
2022-11-17T11:35:34.668Z,14.73
2022-11-17T11:37:41.208Z,14.95
2022-11-17T11:39:50.691Z,15.06
2022-11-17T11:42:08.183Z,15.33
2022-11-17T11:44:25.514Z,15.58
2022-11-17T11:46:36.292Z,15.74
2022-11-17T11:48:38.129Z,15.89
2022-11-17T11:50:42.048Z,16.01
2022-11-17T11:52:45.700Z,15.95
2022-11-17T11:54:51.309Z,15.70
2022-11-17T11:56:49.848Z,15.45
2022-11-17T11:58:54.609Z,15.35
2022-11-17T12:00:56.652Z,15.25
2022-11-17T12:03:06.949Z,15.27
2022-11-17T12:05:16.636Z,15.21
2022-11-17T12:07:22.144Z,15.22
2022-11-17T12:09:53.003Z,15.04
2022-11-17T12:12:02.312Z,14.87
2022-11-17T12:14:02.712Z,14.75
2022-11-17T12:16:19.621Z,14.56
2022-11-17T12:18:33.476Z,14.37
2022-11-17T12:20:58.189Z,14.27
2022-11-17T12:23:11.690Z,14.29
2022-11-17T12:25:19.166Z,14.22
2022-11-17T12:27:43.191Z,14.26
2022-11-17T12:29:48.236Z,14.30
2022-11-17T12:31:47.891Z,14.35
2022-11-17T12:34:12.485Z,14.24
2022-11-17T12:36:30.828Z,14.24
2022-11-17T12:38:42.999Z,14.35
2022-11-17T12:40:46.956Z,14.66
2022-11-17T12:43:20.761Z,15.06
2022-11-17T12:45:19.349Z,15.36
2022-11-17T12:47:20.275Z,15.45
2022-11-17T12:49:28.374Z,15.51
2022-11-17T12:51:35.479Z,15.41
2022-11-17T12:53:49.794Z,15.33
2022-11-17T12:56:21.621Z,15.32
2022-11-17T12:58:28.359Z,15.29
2022-11-17T13:00:30.298Z,15.25
2022-11-17T13:02:39.757Z,15.29
2022-11-17T13:04:49.140Z,15.20
2022-11-17T13:07:04.825Z,15.11
2022-11-17T13:09:06.274Z,15.16
2022-11-17T13:11:11.777Z,15.02
2022-11-17T13:13:14.621Z,14.98
2022-11-17T13:15:23.800Z,14.95
2022-11-17T13:17:26.347Z,14.96
2022-11-17T13:19:34.310Z,14.93
2022-11-17T13:21:34.073Z,14.94
2022-11-17T13:23:35.100Z,15.00
2022-11-17T13:25:34.218Z,14.97
2022-11-17T13:27:33.805Z,14.99
2022-11-17T13:29:32.038Z,14.89
2022-11-17T13:31:30.403Z,14.76
2022-11-17T13:33:32.383Z,14.66
2022-11-17T13:35:35.714Z,14.53
2022-11-17T13:37:33.822Z,14.46
2022-11-17T13:39:32.493Z,14.25
2022-11-17T13:41:38.835Z,14.18
2022-11-17T13:43:41.041Z,14.08
2022-11-17T13:45:40.689Z,13.92
2022-11-17T13:47:45.604Z,13.75
2022-11-17T13:49:43.828Z,13.60
2022-11-17T13:51:44.863Z,13.48
2022-11-17T13:53:45.044Z,13.42
2022-11-17T13:55:46.276Z,13.38
2022-11-17T13:57:56.182Z,13.33
2022-11-17T13:59:57.171Z,13.29
2022-11-17T14:02:24.439Z,13.24
2022-11-17T14:04:24.788Z,13.11
2022-11-17T14:06:23.353Z,13.01
2022-11-17T14:08:27.121Z,12.94
2022-11-17T14:10:34.317Z,12.86
2022-11-17T14:12:32.818Z,12.89
2022-11-17T14:14:35.105Z,12.89
2022-11-17T14:16:38.774Z,12.82
2022-11-17T14:18:38.079Z,12.74
2022-11-17T14:20:37.113Z,12.72
2022-11-17T14:22:35.511Z,12.62
2022-11-17T14:24:33.831Z,12.56
2022-11-17T14:26:32.796Z,12.55
2022-11-17T14:28:31.207Z,12.46
2022-11-17T14:30:29.514Z,12.49
2022-11-17T14:32:29.212Z,12.55
2022-11-17T14:34:27.389Z,12.57
2022-11-17T14:36:25.919Z,12.52
2022-11-17T14:38:24.376Z,12.50
2022-11-17T14:40:22.853Z,12.42
2022-11-17T14:42:21.208Z,12.34
2022-11-17T14:44:19.604Z,12.32
2022-11-17T14:46:23.430Z,12.26
2022-11-17T14:48:23.063Z,12.15
2022-11-17T14:50:21.488Z,12.17
2022-11-17T14:52:19.801Z,12.22
2022-11-17T14:54:18.135Z,12.27
2022-11-17T14:56:19.174Z,12.27
2022-11-17T14:58:17.444Z,12.17
2022-11-17T15:00:20.624Z,12.11
2022-11-17T15:02:19.250Z,12.08
2022-11-17T15:04:48.837Z,11.97
2022-11-17T15:06:38.756Z,11.90
2022-11-17T15:08:37.078Z,11.85
2022-11-17T15:10:35.321Z,11.84
2022-11-17T15:12:33.704Z,11.89
2022-11-17T15:14:31.991Z,11.94
2022-11-17T15:16:30.245Z,11.93
2022-11-17T15:18:28.544Z,11.98
2022-11-17T15:20:29.664Z,12.07
2022-11-17T15:22:30.615Z,11.98
2022-11-17T15:24:28.870Z,11.98
2022-11-17T15:26:27.079Z,11.95
2022-11-17T15:28:29.079Z,12.03
2022-11-17T15:30:29.036Z,12.09
2022-11-17T15:32:27.294Z,12.16
2022-11-17T15:34:25.503Z,12.24
2022-11-17T15:36:25.657Z,12.22
2022-11-17T15:38:23.745Z,12.16
2022-11-17T15:40:21.938Z,12.11
2022-11-17T15:42:20.343Z,12.06
2022-11-17T15:44:20.745Z,11.99
2022-11-17T15:46:22.781Z,11.99
2022-11-17T15:48:20.966Z,11.90
2022-11-17T15:50:21.615Z,11.86
2022-11-17T15:52:41.428Z,11.78
2022-11-17T15:54:39.678Z,11.68
2022-11-17T15:56:38.139Z,11.61
2022-11-17T15:58:36.845Z,11.51
2022-11-17T16:00:35.486Z,11.43
2022-11-17T16:02:33.769Z,11.34
2022-11-17T16:04:32.163Z,11.31
2022-11-17T16:06:32.030Z,11.41
2022-11-17T16:08:31.923Z,11.41
2022-11-17T16:10:30.321Z,11.33
2022-11-17T16:12:28.685Z,11.49
2022-11-17T16:14:32.707Z,11.47
2022-11-17T16:16:33.281Z,11.41
2022-11-17T16:18:33.450Z,11.42
2022-11-17T16:20:31.825Z,11.31
2022-11-17T16:22:30.073Z,11.22
2022-11-17T16:24:30.766Z,11.13
2022-11-17T16:26:33.337Z,11.01
2022-11-17T16:28:31.605Z,11.06
2022-11-17T16:30:35.304Z,11.12
2022-11-17T16:32:34.115Z,11.05
2022-11-17T16:34:39.330Z,10.99
2022-11-17T16:36:40.172Z,10.95
2022-11-17T16:38:49.789Z,10.85
2022-11-17T16:41:00.927Z,10.73
2022-11-17T16:42:59.386Z,10.62
2022-11-17T16:44:57.927Z,10.54
2022-11-17T16:46:56.891Z,10.62
2022-11-17T16:48:58.227Z,10.55
2022-11-17T16:50:56.372Z,10.55
2022-11-17T16:52:54.809Z,10.60
2022-11-17T16:54:59.196Z,10.52
2022-11-17T16:57:03.021Z,10.47
2022-11-17T16:59:01.950Z,10.43
2022-11-17T17:01:12.394Z,10.39
2022-11-17T17:03:11.056Z,10.35
2022-11-17T17:05:09.715Z,10.34
2022-11-17T17:07:08.140Z,10.28
2022-11-17T17:09:11.283Z,10.29
2022-11-17T17:11:11.479Z,10.20
2022-11-17T17:13:11.265Z,10.15
2022-11-17T17:15:16.501Z,10.07
2022-11-17T17:17:18.005Z,10.04
2022-11-17T17:19:17.372Z,9.97
2022-11-17T17:21:17.945Z,9.89
2022-11-17T17:23:16.184Z,9.82
2022-11-17T17:25:16.867Z,9.82
2022-11-17T17:27:15.132Z,9.90
2022-11-17T17:29:15.046Z,9.84
2022-11-17T17:31:20.954Z,9.82
2022-11-17T17:33:20.389Z,9.81
2022-11-17T17:35:18.872Z,9.79
2022-11-17T17:37:19.230Z,9.83
2022-11-17T17:39:18.152Z,9.84
2022-11-17T17:41:22.511Z,9.80
2022-11-17T17:43:23.760Z,9.82
2022-11-17T17:45:23.452Z,9.85
2022-11-17T17:47:21.877Z,9.87
2022-11-17T17:49:22.855Z,9.92
2022-11-17T17:51:24.115Z,9.98
2022-11-17T17:53:22.364Z,9.87
2022-11-17T17:55:29.147Z,9.75
2022-11-17T17:57:32.772Z,9.72
2022-11-17T17:59:32.232Z,9.65
2022-11-17T18:01:33.271Z,9.63
2022-11-17T18:03:31.534Z,9.56
2022-11-17T18:05:31.764Z,9.54
2022-11-17T18:07:30.094Z,9.60
2022-11-17T18:09:28.717Z,9.57
2022-11-17T18:11:27.192Z,9.57
2022-11-17T18:13:25.470Z,9.51
2022-11-17T18:15:32.436Z,9.41
2022-11-17T18:17:32.378Z,9.32
2022-11-17T18:19:33.137Z,9.27
2022-11-17T18:21:32.641Z,9.31
2022-11-17T18:23:34.316Z,9.33
2022-11-17T18:25:34.038Z,9.36
2022-11-17T18:27:32.421Z,9.35
2022-11-17T18:29:30.649Z,9.38
2022-11-17T18:31:31.274Z,9.34
2022-11-17T18:33:31.103Z,9.35
2022-11-17T18:35:29.409Z,9.27
2022-11-17T18:37:30.180Z,9.22
2022-11-17T18:39:31.319Z,9.14
2022-11-17T18:41:34.173Z,9.05
2022-11-17T18:43:33.340Z,9.04
2022-11-17T18:45:32.090Z,9.00
2022-11-17T18:47:30.395Z,8.99
2022-11-17T18:49:34.648Z,9.03
2022-11-17T18:51:34.376Z,8.99
2022-11-17T18:53:35.192Z,9.02
2022-11-17T18:55:36.682Z,9.11
2022-11-17T18:57:35.024Z,9.05
2022-11-17T18:59:36.348Z,8.97
2022-11-17T19:01:38.224Z,8.89
2022-11-17T19:03:37.455Z,8.85
2022-11-17T19:05:37.006Z,8.80
2022-11-17T19:07:43.810Z,8.79
2022-11-17T19:09:51.902Z,8.79
2022-11-17T19:12:01.297Z,8.72
2022-11-17T19:14:02.418Z,8.72
2022-11-17T19:16:10.251Z,8.74
2022-11-17T19:18:11.006Z,8.76
2022-11-17T19:20:13.522Z,8.75
2022-11-17T19:22:13.337Z,8.69
2022-11-17T19:24:11.933Z,8.65
2022-11-17T19:26:54.266Z,8.69
2022-11-17T19:29:02.773Z,8.64
2022-11-17T19:31:07.484Z,8.54
2022-11-17T19:33:05.886Z,8.51
2022-11-17T19:35:16.937Z,8.47
2022-11-17T19:37:19.773Z,8.50
2022-11-17T19:39:18.291Z,8.48
2022-11-17T19:41:18.525Z,8.57
2022-11-17T19:43:24.626Z,8.52
2022-11-17T19:45:25.395Z,8.53
2022-11-17T19:47:30.681Z,8.59
2022-11-17T19:49:33.546Z,8.61
2022-11-17T19:51:43.482Z,8.52
2022-11-17T19:53:45.730Z,8.39
2022-11-17T19:55:54.421Z,8.37
2022-11-17T19:57:54.842Z,8.44
2022-11-17T20:00:05.407Z,8.54
2022-11-17T20:02:19.066Z,8.49
2022-11-17T20:06:37.129Z,8.66
2022-11-17T20:08:42.532Z,8.58
2022-11-17T20:10:47.322Z,8.56
2022-11-17T20:12:47.239Z,8.60
2022-11-17T20:14:51.488Z,8.64
2022-11-17T20:17:00.084Z,8.68
2022-11-17T20:19:01.365Z,8.69
2022-11-17T20:21:00.141Z,8.78
2022-11-17T20:22:58.582Z,8.73
2022-11-17T20:25:03.479Z,8.65
2022-11-17T20:27:08.019Z,8.56
2022-11-17T20:29:19.571Z,8.41
2022-11-17T20:31:30.352Z,8.34
2022-11-17T20:33:36.933Z,8.25
2022-11-17T20:35:38.912Z,8.20
2022-11-17T20:37:37.701Z,8.18
2022-11-17T20:39:41.864Z,8.28
2022-11-17T20:41:45.223Z,8.25
2022-11-17T20:43:52.021Z,8.13
2022-11-17T20:45:57.480Z,8.05
2022-11-17T20:47:56.622Z,8.09
2022-11-17T20:49:58.327Z,8.10
2022-11-17T20:52:13.069Z,8.06
2022-11-17T20:54:17.307Z,7.89
2022-11-17T20:56:22.161Z,7.82
2022-11-17T20:58:22.542Z,7.78
2022-11-17T21:00:28.421Z,7.76
2022-11-17T21:02:27.227Z,7.82
2022-11-17T21:04:25.899Z,7.94
2022-11-17T21:06:24.344Z,7.96
2022-11-17T21:08:25.616Z,8.06
2022-11-17T21:10:25.788Z,8.02
2022-11-17T21:12:24.716Z,7.84
2022-11-17T21:14:28.197Z,7.69
2022-11-17T21:16:28.399Z,7.71
2022-11-17T21:18:38.232Z,7.70
2022-11-17T21:20:41.295Z,7.61
2022-11-17T21:22:39.598Z,7.57
2022-11-17T21:24:37.935Z,7.67
2022-11-17T21:26:36.239Z,7.60
2022-11-17T21:28:42.368Z,7.55
2022-11-17T21:30:40.433Z,7.51
2022-11-17T21:32:44.166Z,7.46
2022-11-17T21:34:47.041Z,7.49
2022-11-17T21:36:50.358Z,7.47
2022-11-17T21:38:48.816Z,7.47
2022-11-17T21:40:49.359Z,7.42
2022-11-17T21:42:47.714Z,7.34
2022-11-17T21:44:46.001Z,7.34
2022-11-17T21:46:44.366Z,7.34
2022-11-17T21:48:44.154Z,7.27
2022-11-17T21:50:44.740Z,7.21
2022-11-17T21:52:45.804Z,7.31
2022-11-17T21:54:44.087Z,7.37
2022-11-17T21:56:42.342Z,7.31
2022-11-17T21:58:41.453Z,7.20
2022-11-17T22:00:39.714Z,7.14
2022-11-17T22:02:37.924Z,7.08
2022-11-17T22:04:37.584Z,7.02
2022-11-17T22:06:36.077Z,7.04
2022-11-17T22:08:37.413Z,7.12
2022-11-17T22:10:36.914Z,7.03
2022-11-17T22:12:35.182Z,7.09
2022-11-17T22:14:33.430Z,6.99
2022-11-17T22:16:32.005Z,6.98
2022-11-17T22:18:30.430Z,6.85
2022-11-17T22:20:30.068Z,6.77
2022-11-17T22:22:28.275Z,6.70
2022-11-17T22:24:26.663Z,6.63
2022-11-17T22:26:25.224Z,6.68
2022-11-17T22:28:25.073Z,6.69
2022-11-17T22:30:23.273Z,6.70
2022-11-17T22:32:21.624Z,6.65
2022-11-17T22:34:23.048Z,6.55
2022-11-17T22:36:22.686Z,6.48
2022-11-17T22:38:20.948Z,6.56
2022-11-17T22:40:19.416Z,6.47
2022-11-17T22:42:18.804Z,6.43
2022-11-17T22:44:17.868Z,6.48
2022-11-17T22:46:16.102Z,6.46
2022-11-17T22:48:14.236Z,6.50
2022-11-17T22:50:12.604Z,6.48
2022-11-17T22:52:16.202Z,6.47
2022-11-17T22:54:14.498Z,6.49
2022-11-17T22:56:13.161Z,6.53
2022-11-17T22:58:11.697Z,6.46
2022-11-17T23:00:14.279Z,6.53
2022-11-17T23:02:12.606Z,6.53
2022-11-17T23:04:12.366Z,6.47
2022-11-17T23:06:10.515Z,6.42
2022-11-17T23:08:10.223Z,6.43
2022-11-17T23:10:09.373Z,6.44
2022-11-17T23:12:07.935Z,6.40
2022-11-17T23:14:06.913Z,6.40
2022-11-17T23:16:06.078Z,6.48
2022-11-17T23:18:04.402Z,6.53
2022-11-17T23:20:03.287Z,6.49
2022-11-17T23:22:01.989Z,6.48
2022-11-17T23:24:05.085Z,6.42
2022-11-17T23:26:06.793Z,6.26
2022-11-17T23:28:05.223Z,6.23
2022-11-17T23:30:03.792Z,6.17
2022-11-17T23:32:02.089Z,6.13
2022-11-17T23:34:00.538Z,6.12
2022-11-17T23:35:59.034Z,6.22
2022-11-17T23:37:57.243Z,6.22
2022-11-17T23:39:56.913Z,6.24
2022-11-17T23:41:55.325Z,6.28
2022-11-17T23:43:55.113Z,6.16
2022-11-17T23:45:53.614Z,6.09
2022-11-17T23:47:51.758Z,6.00
2022-11-17T23:49:50.252Z,6.04
2022-11-17T23:51:48.497Z,6.10
2022-11-17T23:53:47.434Z,6.10
2022-11-17T23:55:55.291Z,5.99
2022-11-17T23:57:54.031Z,5.94
2022-11-17T23:59:52.192Z,5.92
